Portada
METAR-TAF:

METAR-TAF

Aeropuertos :

Granite Falls Municipal Airport (Lenzen-Roe Memorial Field)

Granite Falls, Minnesota, Estados Unidos

latitud: 44-45-11N, longitud: 095-33-21W, altitud: 319 m

Observación

El informe se hizo hace 16 minutos, a las 06:55 UTC
Viento calma
Temperatura 12°C
Humedad 44%
Presión 1025 hPa
Visibilidad: 16.1 km
Cielo despejado

METAR: KGDB 310655Z AUTO 00000KT 10SM CLR 12/00 A3028 RMK AO2 T01200000

Hora: 02:11 (07:11 UTC)


TAF: falta

Observaciones y pronósticos meteorológicos de más de 4000 aeropuertos (mensajes METAR y TAF).

Los puntos amarillos y rojos representan las estaciones disponibles.

Ponga el ratón en el punto deseado para ver el nombre de la estación.

Haga clic para ver las observaciones y los pronósticos meteorológicos.

Para cambiar el mapa : haga clic en los botones verdes con una cruz de color negro para hacer un zoom, en el botón verde con un guión para alejar o en las flechas verdes para mapas adyacentes.


METAR-TAF: